sensor_id;sensor_type;location;lat;lon;timestamp;P1;durP1;ratioP1;P2;durP2;ratioP2
211;SDS011;16228;48.800;9.002;2023-04-28T00:02:09;5.47;;;4.97;;
211;SDS011;16228;48.800;9.002;2023-04-28T00:04:36;6.30;;;5.07;;
211;SDS011;16228;48.800;9.002;2023-04-28T00:07:03;7.60;;;5.43;;
211;SDS011;16228;48.800;9.002;2023-04-28T00:09:30;9.07;;;5.10;;
211;SDS011;16228;48.800;9.002;2023-04-28T00:11:57;8.73;;;5.70;;
211;SDS011;16228;48.800;9.002;2023-04-28T00:14:27;6.60;;;5.83;;
211;SDS011;16228;48.800;9.002;2023-04-28T00:16:54;7.70;;;5.03;;
211;SDS011;16228;48.800;9.002;2023-04-28T00:19:23;6.93;;;5.37;;
211;SDS011;16228;48.800;9.002;2023-04-28T00:21:50;6.63;;;5.30;;
211;SDS011;16228;48.800;9.002;2023-04-28T00:24:17;10.20;;;6.40;;
211;SDS011;16228;48.800;9.002;2023-04-28T00:26:44;7.57;;;5.03;;
211;SDS011;16228;48.800;9.002;2023-04-28T00:29:11;9.93;;;5.90;;
211;SDS011;16228;48.800;9.002;2023-04-28T00:31:39;9.00;;;5.63;;
211;SDS011;16228;48.800;9.002;2023-04-28T00:34:06;7.40;;;6.07;;
211;SDS011;16228;48.800;9.002;2023-04-28T00:36:33;7.00;;;5.77;;
211;SDS011;16228;48.800;9.002;2023-04-28T00:39:00;6.90;;;6.20;;
211;SDS011;16228;48.800;9.002;2023-04-28T00:41:27;6.80;;;5.60;;
211;SDS011;16228;48.800;9.002;2023-04-28T00:43:54;5.53;;;5.03;;
211;SDS011;16228;48.800;9.002;2023-04-28T00:46:21;6.60;;;6.00;;
211;SDS011;16228;48.800;9.002;2023-04-28T00:48:53;6.60;;;5.87;;
211;SDS011;16228;48.800;9.002;2023-04-28T00:51:20;7.03;;;6.30;;
211;SDS011;16228;48.800;9.002;2023-04-28T00:53:47;8.27;;;6.00;;
211;SDS011;16228;48.800;9.002;2023-04-28T00:56:15;6.43;;;5.83;;
211;SDS011;16228;48.800;9.002;2023-04-28T00:58:42;8.53;;;5.30;;
211;SDS011;16228;48.800;9.002;2023-04-28T01:01:09;9.50;;;6.20;;
211;SDS011;16228;48.800;9.002;2023-04-28T01:03:36;7.83;;;5.80;;
211;SDS011;16228;48.800;9.002;2023-04-28T01:06:06;7.50;;;6.70;;
211;SDS011;16228;48.800;9.002;2023-04-28T01:08:34;7.37;;;5.73;;
211;SDS011;16228;48.800;9.002;2023-04-28T01:11:03;6.63;;;5.97;;
211;SDS011;16228;48.800;9.002;2023-04-28T01:13:31;7.33;;;6.37;;
211;SDS011;16228;48.800;9.002;2023-04-28T01:15:58;6.57;;;5.90;;
211;SDS011;16228;48.800;9.002;2023-04-28T01:18:25;6.90;;;6.20;;
211;SDS011;16228;48.800;9.002;2023-04-28T01:20:52;6.93;;;6.00;;
211;SDS011;16228;48.800;9.002;2023-04-28T01:23:20;11.27;;;6.50;;
211;SDS011;16228;48.800;9.002;2023-04-28T01:25:49;5.97;;;5.37;;
211;SDS011;16228;48.800;9.002;2023-04-28T01:28:16;7.53;;;6.57;;
211;SDS011;16228;48.800;9.002;2023-04-28T01:30:43;7.77;;;5.33;;
211;SDS011;16228;48.800;9.002;2023-04-28T01:33:10;6.93;;;5.40;;
211;SDS011;16228;48.800;9.002;2023-04-28T01:35:37;6.13;;;5.30;;
211;SDS011;16228;48.800;9.002;2023-04-28T01:38:04;6.17;;;5.57;;
211;SDS011;16228;48.800;9.002;2023-04-28T01:40:31;6.83;;;5.97;;
211;SDS011;16228;48.800;9.002;2023-04-28T01:42:59;5.97;;;5.30;;
211;SDS011;16228;48.800;9.002;2023-04-28T01:45:26;6.97;;;6.10;;
211;SDS011;16228;48.800;9.002;2023-04-28T01:47:53;6.10;;;5.20;;
211;SDS011;16228;48.800;9.002;2023-04-28T01:50:20;7.37;;;6.23;;
211;SDS011;16228;48.800;9.002;2023-04-28T01:52:47;8.07;;;5.90;;
211;SDS011;16228;48.800;9.002;2023-04-28T01:55:14;5.13;;;4.63;;
211;SDS011;16228;48.800;9.002;2023-04-28T01:57:40;7.47;;;6.03;;
211;SDS011;16228;48.800;9.002;2023-04-28T02:00:09;6.40;;;5.80;;
211;SDS011;16228;48.800;9.002;2023-04-28T02:02:37;6.40;;;5.43;;
211;SDS011;16228;48.800;9.002;2023-04-28T02:05:04;7.23;;;5.50;;
211;SDS011;16228;48.800;9.002;2023-04-28T02:07:31;6.33;;;4.80;;
211;SDS011;16228;48.800;9.002;2023-04-28T02:09:58;5.73;;;4.80;;
211;SDS011;16228;48.800;9.002;2023-04-28T02:12:25;6.50;;;5.30;;
211;SDS011;16228;48.800;9.002;2023-04-28T02:14:52;7.33;;;5.53;;
211;SDS011;16228;48.800;9.002;2023-04-28T02:17:20;6.47;;;5.57;;
211;SDS011;16228;48.800;9.002;2023-04-28T02:19:49;6.00;;;5.43;;
211;SDS011;16228;48.800;9.002;2023-04-28T02:22:20;8.53;;;5.47;;
211;SDS011;16228;48.800;9.002;2023-04-28T02:24:47;6.27;;;5.13;;
211;SDS011;16228;48.800;9.002;2023-04-28T02:27:14;4.90;;;4.33;;
211;SDS011;16228;48.800;9.002;2023-04-28T02:29:41;5.33;;;4.83;;
211;SDS011;16228;48.800;9.002;2023-04-28T02:32:08;5.33;;;4.83;;
211;SDS011;16228;48.800;9.002;2023-04-28T02:34:37;6.37;;;5.03;;
211;SDS011;16228;48.800;9.002;2023-04-28T02:37:04;6.10;;;5.20;;
211;SDS011;16228;48.800;9.002;2023-04-28T02:39:31;5.40;;;4.90;;
211;SDS011;16228;48.800;9.002;2023-04-28T02:41:58;5.90;;;5.20;;
211;SDS011;16228;48.800;9.002;2023-04-28T02:44:25;5.37;;;4.83;;
211;SDS011;16228;48.800;9.002;2023-04-28T02:46:52;5.73;;;4.73;;
211;SDS011;16228;48.800;9.002;2023-04-28T02:49:19;5.17;;;4.53;;
211;SDS011;16228;48.800;9.002;2023-04-28T02:51:47;5.73;;;5.13;;
211;SDS011;16228;48.800;9.002;2023-04-28T02:54:14;10.30;;;5.53;;
211;SDS011;16228;48.800;9.002;2023-04-28T02:56:41;5.87;;;5.17;;
211;SDS011;16228;48.800;9.002;2023-04-28T02:59:08;7.90;;;5.40;;
211;SDS011;16228;48.800;9.002;2023-04-28T03:01:35;5.47;;;4.40;;
211;SDS011;16228;48.800;9.002;2023-04-28T03:04:02;5.10;;;4.70;;
211;SDS011;16228;48.800;9.002;2023-04-28T03:06:30;6.97;;;4.90;;
211;SDS011;16228;48.800;9.002;2023-04-28T03:08:59;6.43;;;5.03;;
211;SDS011;16228;48.800;9.002;2023-04-28T03:11:26;5.47;;;4.97;;
211;SDS011;16228;48.800;9.002;2023-04-28T03:13:53;5.97;;;4.30;;
211;SDS011;16228;48.800;9.002;2023-04-28T03:16:19;4.83;;;4.33;;
211;SDS011;16228;48.800;9.002;2023-04-28T03:18:46;7.97;;;5.37;;
211;SDS011;16228;48.800;9.002;2023-04-28T03:21:13;5.90;;;4.00;;
211;SDS011;16228;48.800;9.002;2023-04-28T03:23:40;5.67;;;5.03;;
211;SDS011;16228;48.800;9.002;2023-04-28T03:26:09;4.67;;;4.27;;
211;SDS011;16228;48.800;9.002;2023-04-28T03:28:36;7.50;;;4.60;;
211;SDS011;16228;48.800;9.002;2023-04-28T03:31:03;7.47;;;4.57;;
211;SDS011;16228;48.800;9.002;2023-04-28T03:33:30;7.53;;;5.23;;
211;SDS011;16228;48.800;9.002;2023-04-28T03:35:57;6.10;;;4.77;;
211;SDS011;16228;48.800;9.002;2023-04-28T03:38:24;5.27;;;4.73;;
211;SDS011;16228;48.800;9.002;2023-04-28T03:40:51;6.33;;;5.63;;
211;SDS011;16228;48.800;9.002;2023-04-28T03:43:19;6.63;;;5.10;;
211;SDS011;16228;48.800;9.002;2023-04-28T03:45:46;5.33;;;4.77;;
211;SDS011;16228;48.800;9.002;2023-04-28T03:48:13;6.13;;;4.80;;
211;SDS011;16228;48.800;9.002;2023-04-28T03:50:40;5.80;;;4.70;;
211;SDS011;16228;48.800;9.002;2023-04-28T03:53:09;6.27;;;5.50;;
211;SDS011;16228;48.800;9.002;2023-04-28T03:55:36;5.10;;;4.50;;
211;SDS011;16228;48.800;9.002;2023-04-28T03:58:03;8.47;;;5.37;;
211;SDS011;16228;48.800;9.002;2023-04-28T04:00:32;7.77;;;5.97;;
211;SDS011;16228;48.800;9.002;2023-04-28T04:02:59;5.83;;;5.13;;
211;SDS011;16228;48.800;9.002;2023-04-28T04:05:26;7.00;;;4.63;;
211;SDS011;16228;48.800;9.002;2023-04-28T04:07:53;5.50;;;4.70;;
211;SDS011;16228;48.800;9.002;2023-04-28T04:10:20;9.03;;;4.80;;
211;SDS011;16228;48.800;9.002;2023-04-28T04:12:47;6.47;;;5.57;;
211;SDS011;16228;48.800;9.002;2023-04-28T04:15:14;6.00;;;5.27;;
211;SDS011;16228;48.800;9.002;2023-04-28T04:17:42;5.20;;;4.70;;
211;SDS011;16228;48.800;9.002;2023-04-28T04:20:09;5.47;;;4.97;;
211;SDS011;16228;48.800;9.002;2023-04-28T04:22:37;6.77;;;5.40;;
211;SDS011;16228;48.800;9.002;2023-04-28T04:25:04;5.77;;;4.43;;
211;SDS011;16228;48.800;9.002;2023-04-28T04:27:31;5.83;;;5.30;;
211;SDS011;16228;48.800;9.002;2023-04-28T04:29:59;5.47;;;4.77;;
211;SDS011;16228;48.800;9.002;2023-04-28T04:32:26;4.20;;;3.80;;
211;SDS011;16228;48.800;9.002;2023-04-28T04:34:54;5.70;;;4.13;;
211;SDS011;16228;48.800;9.002;2023-04-28T04:37:21;5.17;;;3.80;;
211;SDS011;16228;48.800;9.002;2023-04-28T04:39:48;6.43;;;4.20;;
211;SDS011;16228;48.800;9.002;2023-04-28T04:42:15;4.27;;;3.50;;
211;SDS011;16228;48.800;9.002;2023-04-28T04:44:42;5.33;;;4.83;;
211;SDS011;16228;48.800;9.002;2023-04-28T04:47:09;4.90;;;3.53;;
211;SDS011;16228;48.800;9.002;2023-04-28T04:49:36;3.70;;;3.40;;
211;SDS011;16228;48.800;9.002;2023-04-28T04:52:04;5.00;;;3.47;;
211;SDS011;16228;48.800;9.002;2023-04-28T04:54:32;3.73;;;2.93;;
211;SDS011;16228;48.800;9.002;2023-04-28T04:56:59;4.47;;;3.40;;
211;SDS011;16228;48.800;9.002;2023-04-28T04:59:26;4.70;;;3.40;;
211;SDS011;16228;48.800;9.002;2023-04-28T05:01:53;5.07;;;4.27;;
211;SDS011;16228;48.800;9.002;2023-04-28T05:04:20;6.27;;;5.03;;
211;SDS011;16228;48.800;9.002;2023-04-28T05:06:47;4.37;;;3.97;;
211;SDS011;16228;48.800;9.002;2023-04-28T05:09:17;4.83;;;4.10;;
211;SDS011;16228;48.800;9.002;2023-04-28T05:11:44;5.90;;;4.50;;
211;SDS011;16228;48.800;9.002;2023-04-28T05:14:11;4.33;;;3.93;;
211;SDS011;16228;48.800;9.002;2023-04-28T05:16:37;4.93;;;4.43;;
211;SDS011;16228;48.800;9.002;2023-04-28T05:19:05;5.13;;;4.63;;
211;SDS011;16228;48.800;9.002;2023-04-28T05:21:32;6.40;;;3.93;;
211;SDS011;16228;48.800;9.002;2023-04-28T05:23:59;4.30;;;3.90;;
211;SDS011;16228;48.800;9.002;2023-04-28T05:26:29;5.20;;;4.70;;
211;SDS011;16228;48.800;9.002;2023-04-28T05:28:56;4.77;;;3.73;;
211;SDS011;16228;48.800;9.002;2023-04-28T05:31:23;7.37;;;3.80;;
211;SDS011;16228;48.800;9.002;2023-04-28T05:33:49;6.63;;;3.70;;
211;SDS011;16228;48.800;9.002;2023-04-28T05:36:17;5.90;;;4.23;;
211;SDS011;16228;48.800;9.002;2023-04-28T05:38:44;6.43;;;5.83;;
211;SDS011;16228;48.800;9.002;2023-04-28T05:41:11;7.23;;;5.00;;
211;SDS011;16228;48.800;9.002;2023-04-28T05:43:39;4.50;;;4.10;;
211;SDS011;16228;48.800;9.002;2023-04-28T05:46:06;4.03;;;3.73;;
211;SDS011;16228;48.800;9.002;2023-04-28T05:48:33;4.13;;;3.73;;
211;SDS011;16228;48.800;9.002;2023-04-28T05:51:00;5.80;;;4.33;;
211;SDS011;16228;48.800;9.002;2023-04-28T05:53:27;6.23;;;5.73;;
211;SDS011;16228;48.800;9.002;2023-04-28T05:55:54;5.30;;;3.70;;
211;SDS011;16228;48.800;9.002;2023-04-28T05:58:21;6.13;;;4.00;;
211;SDS011;16228;48.800;9.002;2023-04-28T06:00:49;7.50;;;4.07;;
211;SDS011;16228;48.800;9.002;2023-04-28T06:03:17;3.60;;;3.30;;
211;SDS011;16228;48.800;9.002;2023-04-28T06:05:44;4.73;;;4.17;;
211;SDS011;16228;48.800;9.002;2023-04-28T06:08:11;5.00;;;4.07;;
211;SDS011;16228;48.800;9.002;2023-04-28T06:10:38;6.47;;;4.20;;
211;SDS011;16228;48.800;9.002;2023-04-28T06:13:05;4.73;;;4.30;;
211;SDS011;16228;48.800;9.002;2023-04-28T06:15:33;5.50;;;3.70;;
211;SDS011;16228;48.800;9.002;2023-04-28T06:18:01;8.97;;;4.43;;
211;SDS011;16228;48.800;9.002;2023-04-28T06:20:30;7.97;;;5.53;;
211;SDS011;16228;48.800;9.002;2023-04-28T06:22:57;4.50;;;4.10;;
211;SDS011;16228;48.800;9.002;2023-04-28T06:25:24;5.30;;;4.27;;
211;SDS011;16228;48.800;9.002;2023-04-28T06:27:51;6.70;;;4.20;;
211;SDS011;16228;48.800;9.002;2023-04-28T06:30:18;6.30;;;4.77;;
211;SDS011;16228;48.800;9.002;2023-04-28T06:32:46;5.90;;;4.03;;
211;SDS011;16228;48.800;9.002;2023-04-28T06:35:14;5.27;;;4.17;;
211;SDS011;16228;48.800;9.002;2023-04-28T06:37:42;4.10;;;3.70;;
211;SDS011;16228;48.800;9.002;2023-04-28T06:40:09;4.30;;;3.90;;
211;SDS011;16228;48.800;9.002;2023-04-28T06:42:36;5.07;;;3.93;;
211;SDS011;16228;48.800;9.002;2023-04-28T06:45:03;7.17;;;4.53;;
211;SDS011;16228;48.800;9.002;2023-04-28T06:47:31;4.13;;;3.83;;
211;SDS011;16228;48.800;9.002;2023-04-28T06:49:58;4.43;;;4.03;;
211;SDS011;16228;48.800;9.002;2023-04-28T06:52:27;5.00;;;3.70;;
211;SDS011;16228;48.800;9.002;2023-04-28T06:54:54;6.33;;;3.97;;
211;SDS011;16228;48.800;9.002;2023-04-28T06:57:21;4.70;;;4.23;;
211;SDS011;16228;48.800;9.002;2023-04-28T06:59:48;4.73;;;3.57;;
211;SDS011;16228;48.800;9.002;2023-04-28T07:02:15;6.27;;;3.87;;
211;SDS011;16228;48.800;9.002;2023-04-28T07:04:42;4.50;;;4.03;;
211;SDS011;16228;48.800;9.002;2023-04-28T07:07:10;5.73;;;4.20;;
211;SDS011;16228;48.800;9.002;2023-04-28T07:09:38;5.73;;;4.00;;
211;SDS011;16228;48.800;9.002;2023-04-28T07:12:06;4.63;;;3.77;;
211;SDS011;16228;48.800;9.002;2023-04-28T07:14:32;5.73;;;4.10;;
211;SDS011;16228;48.800;9.002;2023-04-28T07:17:00;5.37;;;4.17;;
211;SDS011;16228;48.800;9.002;2023-04-28T07:19:27;5.17;;;4.07;;
211;SDS011;16228;48.800;9.002;2023-04-28T07:21:54;5.03;;;3.90;;
211;SDS011;16228;48.800;9.002;2023-04-28T07:24:21;4.70;;;3.50;;
211;SDS011;16228;48.800;9.002;2023-04-28T07:26:50;4.47;;;3.83;;
211;SDS011;16228;48.800;9.002;2023-04-28T07:29:16;5.10;;;3.90;;
211;SDS011;16228;48.800;9.002;2023-04-28T07:31:43;4.90;;;4.10;;
211;SDS011;16228;48.800;9.002;2023-04-28T07:34:10;4.50;;;4.00;;
211;SDS011;16228;48.800;9.002;2023-04-28T07:36:37;4.27;;;3.67;;
211;SDS011;16228;48.800;9.002;2023-04-28T07:39:04;6.23;;;4.27;;
211;SDS011;16228;48.800;9.002;2023-04-28T07:41:34;5.23;;;4.60;;
211;SDS011;16228;48.800;9.002;2023-04-28T07:44:03;5.40;;;4.37;;
211;SDS011;16228;48.800;9.002;2023-04-28T07:46:32;4.93;;;4.43;;
211;SDS011;16228;48.800;9.002;2023-04-28T07:48:59;5.73;;;5.13;;
211;SDS011;16228;48.800;9.002;2023-04-28T07:51:27;5.80;;;5.20;;
211;SDS011;16228;48.800;9.002;2023-04-28T07:53:54;5.53;;;5.03;;
211;SDS011;16228;48.800;9.002;2023-04-28T07:56:20;6.20;;;5.60;;
211;SDS011;16228;48.800;9.002;2023-04-28T07:58:48;5.90;;;5.30;;
211;SDS011;16228;48.800;9.002;2023-04-28T08:01:17;7.47;;;6.33;;
211;SDS011;16228;48.800;9.002;2023-04-28T08:03:44;5.30;;;4.77;;
211;SDS011;16228;48.800;9.002;2023-04-28T08:06:11;5.67;;;4.70;;
211;SDS011;16228;48.800;9.002;2023-04-28T08:08:39;4.77;;;4.07;;
211;SDS011;16228;48.800;9.002;2023-04-28T08:11:06;6.40;;;5.10;;
211;SDS011;16228;48.800;9.002;2023-04-28T08:13:34;5.67;;;4.60;;
211;SDS011;16228;48.800;9.002;2023-04-28T08:16:01;5.73;;;4.30;;
211;SDS011;16228;48.800;9.002;2023-04-28T08:18:29;5.40;;;4.90;;
211;SDS011;16228;48.800;9.002;2023-04-28T08:20:56;5.17;;;4.53;;
211;SDS011;16228;48.800;9.002;2023-04-28T08:23:23;4.20;;;3.60;;
211;SDS011;16228;48.800;9.002;2023-04-28T08:25:52;5.47;;;4.93;;
211;SDS011;16228;48.800;9.002;2023-04-28T08:28:19;4.80;;;4.03;;
211;SDS011;16228;48.800;9.002;2023-04-28T08:30:46;5.07;;;4.53;;
211;SDS011;16228;48.800;9.002;2023-04-28T08:33:13;5.53;;;4.40;;
211;SDS011;16228;48.800;9.002;2023-04-28T08:35:41;6.20;;;5.43;;
211;SDS011;16228;48.800;9.002;2023-04-28T08:38:08;6.50;;;4.93;;
211;SDS011;16228;48.800;9.002;2023-04-28T08:40:38;7.27;;;5.70;;
211;SDS011;16228;48.800;9.002;2023-04-28T08:43:06;10.53;;;9.23;;
211;SDS011;16228;48.800;9.002;2023-04-28T08:45:37;12.07;;;6.77;;
211;SDS011;16228;48.800;9.002;2023-04-28T08:48:06;5.83;;;4.93;;
211;SDS011;16228;48.800;9.002;2023-04-28T08:50:49;4.20;;;3.80;;
211;SDS011;16228;48.800;9.002;2023-04-28T08:53:20;5.20;;;4.70;;
211;SDS011;16228;48.800;9.002;2023-04-28T08:55:50;4.17;;;3.83;;
211;SDS011;16228;48.800;9.002;2023-04-28T08:58:21;3.80;;;3.50;;
211;SDS011;16228;48.800;9.002;2023-04-28T09:00:48;4.53;;;4.13;;
211;SDS011;16228;48.800;9.002;2023-04-28T09:03:15;3.93;;;3.63;;
211;SDS011;16228;48.800;9.002;2023-04-28T09:05:43;7.10;;;4.90;;
211;SDS011;16228;48.800;9.002;2023-04-28T09:08:11;4.83;;;3.43;;
211;SDS011;16228;48.800;9.002;2023-04-28T09:10:38;3.47;;;3.17;;
211;SDS011;16228;48.800;9.002;2023-04-28T09:13:05;5.37;;;4.07;;
211;SDS011;16228;48.800;9.002;2023-04-28T09:15:33;3.83;;;3.37;;
211;SDS011;16228;48.800;9.002;2023-04-28T09:18:01;4.23;;;3.83;;
211;SDS011;16228;48.800;9.002;2023-04-28T09:20:29;4.33;;;3.93;;
211;SDS011;16228;48.800;9.002;2023-04-28T09:23:12;3.87;;;3.37;;
211;SDS011;16228;48.800;9.002;2023-04-28T09:25:53;3.13;;;2.93;;
211;SDS011;16228;48.800;9.002;2023-04-28T09:28:24;3.37;;;2.50;;
211;SDS011;16228;48.800;9.002;2023-04-28T09:30:51;4.77;;;2.90;;
211;SDS011;16228;48.800;9.002;2023-04-28T09:33:18;2.37;;;2.20;;
211;SDS011;16228;48.800;9.002;2023-04-28T09:35:46;3.90;;;2.27;;
211;SDS011;16228;48.800;9.002;2023-04-28T09:38:14;2.57;;;2.03;;
211;SDS011;16228;48.800;9.002;2023-04-28T09:40:48;2.03;;;1.93;;
211;SDS011;16228;48.800;9.002;2023-04-28T09:43:22;1.80;;;1.70;;
211;SDS011;16228;48.800;9.002;2023-04-28T09:45:50;1.83;;;1.70;;
211;SDS011;16228;48.800;9.002;2023-04-28T09:48:25;1.73;;;1.60;;
211;SDS011;16228;48.800;9.002;2023-04-28T09:50:53;1.50;;;1.30;;
211;SDS011;16228;48.800;9.002;2023-04-28T09:53:22;1.80;;;1.70;;
211;SDS011;16228;48.800;9.002;2023-04-28T09:55:50;2.10;;;1.30;;
211;SDS011;16228;48.800;9.002;2023-04-28T09:58:19;1.00;;;1.00;;
211;SDS011;16228;48.800;9.002;2023-04-28T10:00:48;1.23;;;1.17;;
211;SDS011;16228;48.800;9.002;2023-04-28T10:03:20;1.03;;;0.90;;
211;SDS011;16228;48.800;9.002;2023-04-28T10:05:49;1.23;;;1.00;;
211;SDS011;16228;48.800;9.002;2023-04-28T10:08:17;1.17;;;1.07;;
211;SDS011;16228;48.800;9.002;2023-04-28T10:10:47;1.30;;;1.20;;
211;SDS011;16228;48.800;9.002;2023-04-28T10:13:17;1.40;;;1.30;;
211;SDS011;16228;48.800;9.002;2023-04-28T10:15:45;1.17;;;1.07;;
211;SDS011;16228;48.800;9.002;2023-04-28T10:18:13;1.40;;;1.30;;
211;SDS011;16228;48.800;9.002;2023-04-28T10:20:41;2.33;;;1.03;;
211;SDS011;16228;48.800;9.002;2023-04-28T10:26:32;1.40;;;1.00;;
211;SDS011;16228;48.800;9.002;2023-04-28T10:29:17;1.53;;;1.00;;
211;SDS011;16228;48.800;9.002;2023-04-28T10:34:40;0.57;;;0.57;;
211;SDS011;16228;48.800;9.002;2023-04-28T10:37:07;1.17;;;0.90;;
211;SDS011;16228;48.800;9.002;2023-04-28T10:39:35;0.63;;;0.63;;
211;SDS011;16228;48.800;9.002;2023-04-28T10:42:03;0.50;;;0.50;;
211;SDS011;16228;48.800;9.002;2023-04-28T10:44:42;0.50;;;0.50;;
211;SDS011;16228;48.800;9.002;2023-04-28T10:47:09;1.00;;;0.40;;
211;SDS011;16228;48.800;9.002;2023-04-28T10:52:46;2.30;;;0.50;;
211;SDS011;16228;48.800;9.002;2023-04-28T10:55:26;1.23;;;0.50;;
211;SDS011;16228;48.800;9.002;2023-04-28T11:03:50;0.60;;;0.60;;
211;SDS011;16228;48.800;9.002;2023-04-28T11:06:24;0.50;;;0.50;;
211;SDS011;16228;48.800;9.002;2023-04-28T11:08:53;0.80;;;0.60;;
211;SDS011;16228;48.800;9.002;2023-04-28T11:11:23;0.40;;;0.40;;
211;SDS011;16228;48.800;9.002;2023-04-28T11:13:52;0.80;;;0.80;;
211;SDS011;16228;48.800;9.002;2023-04-28T11:16:21;1.10;;;0.50;;
211;SDS011;16228;48.800;9.002;2023-04-28T11:18:50;0.47;;;0.47;;
211;SDS011;16228;48.800;9.002;2023-04-28T11:21:19;0.63;;;0.63;;
211;SDS011;16228;48.800;9.002;2023-04-28T11:23:47;0.63;;;0.60;;
211;SDS011;16228;48.800;9.002;2023-04-28T11:26:14;1.00;;;0.60;;
211;SDS011;16228;48.800;9.002;2023-04-28T11:28:47;1.33;;;0.47;;
211;SDS011;16228;48.800;9.002;2023-04-28T11:31:16;1.00;;;0.90;;
211;SDS011;16228;48.800;9.002;2023-04-28T11:33:45;1.13;;;0.50;;
211;SDS011;16228;48.800;9.002;2023-04-28T11:36:25;0.77;;;0.57;;
211;SDS011;16228;48.800;9.002;2023-04-28T11:38:57;0.40;;;0.40;;
211;SDS011;16228;48.800;9.002;2023-04-28T11:41:24;0.73;;;0.73;;
211;SDS011;16228;48.800;9.002;2023-04-28T11:43:51;1.07;;;1.00;;
211;SDS011;16228;48.800;9.002;2023-04-28T11:46:20;0.60;;;0.60;;
211;SDS011;16228;48.800;9.002;2023-04-28T11:48:48;1.00;;;0.80;;
211;SDS011;16228;48.800;9.002;2023-04-28T11:51:31;0.50;;;0.50;;
211;SDS011;16228;48.800;9.002;2023-04-28T11:53:59;0.60;;;0.60;;
211;SDS011;16228;48.800;9.002;2023-04-28T11:56:27;0.50;;;0.50;;
211;SDS011;16228;48.800;9.002;2023-04-28T11:59:03;0.93;;;0.50;;
211;SDS011;16228;48.800;9.002;2023-04-28T12:01:33;0.77;;;0.70;;
211;SDS011;16228;48.800;9.002;2023-04-28T12:04:09;0.73;;;0.60;;
211;SDS011;16228;48.800;9.002;2023-04-28T12:06:37;0.47;;;0.47;;
211;SDS011;16228;48.800;9.002;2023-04-28T12:09:13;0.83;;;0.60;;
211;SDS011;16228;48.800;9.002;2023-04-28T12:11:51;0.57;;;0.57;;
211;SDS011;16228;48.800;9.002;2023-04-28T12:14:19;1.43;;;0.60;;
211;SDS011;16228;48.800;9.002;2023-04-28T12:16:47;1.03;;;0.70;;
211;SDS011;16228;48.800;9.002;2023-04-28T12:19:15;0.53;;;0.53;;
211;SDS011;16228;48.800;9.002;2023-04-28T12:21:57;1.63;;;0.90;;
211;SDS011;16228;48.800;9.002;2023-04-28T12:24:25;0.60;;;0.60;;
211;SDS011;16228;48.800;9.002;2023-04-28T12:26:52;0.90;;;0.60;;
211;SDS011;16228;48.800;9.002;2023-04-28T12:29:35;2.57;;;0.80;;
211;SDS011;16228;48.800;9.002;2023-04-28T12:32:05;2.07;;;0.97;;
211;SDS011;16228;48.800;9.002;2023-04-28T12:34:33;0.70;;;0.70;;
211;SDS011;16228;48.800;9.002;2023-04-28T12:37:01;1.17;;;0.90;;
211;SDS011;16228;48.800;9.002;2023-04-28T12:39:29;0.57;;;0.57;;
211;SDS011;16228;48.800;9.002;2023-04-28T12:41:57;0.80;;;0.80;;
211;SDS011;16228;48.800;9.002;2023-04-28T12:44:24;0.90;;;0.90;;
211;SDS011;16228;48.800;9.002;2023-04-28T12:46:53;1.20;;;0.90;;
211;SDS011;16228;48.800;9.002;2023-04-28T12:49:21;0.83;;;0.60;;
211;SDS011;16228;48.800;9.002;2023-04-28T12:51:48;0.60;;;0.60;;
211;SDS011;16228;48.800;9.002;2023-04-28T12:54:15;1.93;;;0.80;;
211;SDS011;16228;48.800;9.002;2023-04-28T12:56:42;0.93;;;0.90;;
211;SDS011;16228;48.800;9.002;2023-04-28T12:59:09;1.07;;;0.90;;
211;SDS011;16228;48.800;9.002;2023-04-28T13:01:36;1.83;;;0.80;;
211;SDS011;16228;48.800;9.002;2023-04-28T13:04:03;0.93;;;0.70;;
211;SDS011;16228;48.800;9.002;2023-04-28T13:06:32;0.57;;;0.57;;
211;SDS011;16228;48.800;9.002;2023-04-28T13:08:59;0.73;;;0.70;;
211;SDS011;16228;48.800;9.002;2023-04-28T13:11:27;1.13;;;0.70;;
211;SDS011;16228;48.800;9.002;2023-04-28T13:13:55;0.93;;;0.60;;
211;SDS011;16228;48.800;9.002;2023-04-28T13:16:22;0.90;;;0.73;;
211;SDS011;16228;48.800;9.002;2023-04-28T13:18:53;0.60;;;0.60;;
211;SDS011;16228;48.800;9.002;2023-04-28T13:21:21;1.97;;;0.60;;
211;SDS011;16228;48.800;9.002;2023-04-28T13:23:50;1.10;;;0.50;;
211;SDS011;16228;48.800;9.002;2023-04-28T13:26:17;0.80;;;0.80;;
211;SDS011;16228;48.800;9.002;2023-04-28T13:28:45;0.90;;;0.90;;
211;SDS011;16228;48.800;9.002;2023-04-28T13:31:12;0.50;;;0.50;;
211;SDS011;16228;48.800;9.002;2023-04-28T13:33:39;0.40;;;0.40;;
211;SDS011;16228;48.800;9.002;2023-04-28T13:36:06;0.70;;;0.60;;
211;SDS011;16228;48.800;9.002;2023-04-28T13:38:33;0.60;;;0.60;;
211;SDS011;16228;48.800;9.002;2023-04-28T13:41:02;0.90;;;0.70;;
211;SDS011;16228;48.800;9.002;2023-04-28T13:43:29;1.97;;;0.70;;
211;SDS011;16228;48.800;9.002;2023-04-28T13:45:56;0.97;;;0.60;;
211;SDS011;16228;48.800;9.002;2023-04-28T13:48:23;1.17;;;0.50;;
211;SDS011;16228;48.800;9.002;2023-04-28T13:50:51;0.63;;;0.63;;
211;SDS011;16228;48.800;9.002;2023-04-28T13:53:19;0.60;;;0.60;;
211;SDS011;16228;48.800;9.002;2023-04-28T13:55:47;0.97;;;0.60;;
211;SDS011;16228;48.800;9.002;2023-04-28T13:58:16;1.47;;;0.87;;
211;SDS011;16228;48.800;9.002;2023-04-28T14:00:43;1.20;;;1.10;;
211;SDS011;16228;48.800;9.002;2023-04-28T14:03:10;1.20;;;1.10;;
211;SDS011;16228;48.800;9.002;2023-04-28T14:05:37;1.10;;;1.10;;
211;SDS011;16228;48.800;9.002;2023-04-28T14:08:04;2.50;;;1.20;;
211;SDS011;16228;48.800;9.002;2023-04-28T14:10:32;1.50;;;1.40;;
211;SDS011;16228;48.800;9.002;2023-04-28T14:12:59;1.53;;;0.90;;
211;SDS011;16228;48.800;9.002;2023-04-28T14:15:27;3.17;;;0.70;;
211;SDS011;16228;48.800;9.002;2023-04-28T14:17:55;2.17;;;0.80;;
211;SDS011;16228;48.800;9.002;2023-04-28T14:20:22;0.70;;;0.70;;
211;SDS011;16228;48.800;9.002;2023-04-28T14:22:49;0.77;;;0.77;;
211;SDS011;16228;48.800;9.002;2023-04-28T14:25:16;1.87;;;0.90;;
211;SDS011;16228;48.800;9.002;2023-04-28T14:27:43;0.70;;;0.70;;
211;SDS011;16228;48.800;9.002;2023-04-28T14:30:10;0.80;;;0.80;;
211;SDS011;16228;48.800;9.002;2023-04-28T14:32:39;0.67;;;0.63;;
211;SDS011;16228;48.800;9.002;2023-04-28T14:35:06;1.50;;;0.50;;
211;SDS011;16228;48.800;9.002;2023-04-28T14:37:34;0.40;;;0.40;;
211;SDS011;16228;48.800;9.002;2023-04-28T14:40:01;0.50;;;0.50;;
211;SDS011;16228;48.800;9.002;2023-04-28T14:42:30;0.63;;;0.47;;
211;SDS011;16228;48.800;9.002;2023-04-28T14:45:00;0.63;;;0.30;;
211;SDS011;16228;48.800;9.002;2023-04-28T14:47:27;0.50;;;0.50;;
211;SDS011;16228;48.800;9.002;2023-04-28T14:49:56;0.40;;;0.40;;
211;SDS011;16228;48.800;9.002;2023-04-28T14:52:23;0.73;;;0.50;;
211;SDS011;16228;48.800;9.002;2023-04-28T14:54:53;0.40;;;0.40;;
211;SDS011;16228;48.800;9.002;2023-04-28T14:57:21;0.50;;;0.50;;
211;SDS011;16228;48.800;9.002;2023-04-28T14:59:49;0.50;;;0.50;;
211;SDS011;16228;48.800;9.002;2023-04-28T15:02:17;1.83;;;0.53;;
211;SDS011;16228;48.800;9.002;2023-04-28T15:04:45;1.03;;;0.50;;
211;SDS011;16228;48.800;9.002;2023-04-28T15:07:14;1.50;;;0.60;;
211;SDS011;16228;48.800;9.002;2023-04-28T15:09:41;0.70;;;0.70;;
211;SDS011;16228;48.800;9.002;2023-04-28T15:12:08;1.73;;;0.60;;
211;SDS011;16228;48.800;9.002;2023-04-28T15:14:35;2.03;;;0.80;;
211;SDS011;16228;48.800;9.002;2023-04-28T15:17:02;2.10;;;0.90;;
211;SDS011;16228;48.800;9.002;2023-04-28T15:19:29;1.77;;;1.70;;
211;SDS011;16228;48.800;9.002;2023-04-28T15:21:57;1.37;;;0.70;;
211;SDS011;16228;48.800;9.002;2023-04-28T15:24:26;0.67;;;0.60;;
211;SDS011;16228;48.800;9.002;2023-04-28T15:26:53;0.83;;;0.50;;
211;SDS011;16228;48.800;9.002;2023-04-28T15:29:20;0.50;;;0.50;;
211;SDS011;16228;48.800;9.002;2023-04-28T15:31:48;0.60;;;0.60;;
211;SDS011;16228;48.800;9.002;2023-04-28T15:34:15;2.50;;;2.40;;
211;SDS011;16228;48.800;9.002;2023-04-28T15:36:42;1.20;;;0.80;;